Freeport, Florida
Current Conditions -  °F | °C
As of 7:55 AM on Monday 20 Oct 2014 (Local Time) from K54J Reporting Station
Clear Clear  
Wind Chill: 57°   Ceiling: Unl
Heat Index: 57°   Visibility: 10mi
Dew Point: 53°   Wind: 6mph
Humidity: 88%   Direction: 70°ENE
Pressure: 30.08"   Gusts: NA
Location:  30.5°N, 86.14°W
Report Text: K54J 201255Z AUTO 07005KT 10SM CLR 14/12 A3008 RMK AO2 T01380119
Loading
Personal Weather Stations






























Interactive Weather Map
Tropical Storm Tracking
New forecast layout! Learn more

10-Day Weather Forecast

Advertisements
Track Severe Weather on mobile